Timber Lake, Illinois
Current Conditions -  °F | °C
As of 10:02 PM on Monday 22 Dec 2014 (Local Time) from KPWK Reporting Station
Light Rain Light Rain  
Wind Chill: 33°   Ceiling: 700
Heat Index: 40°   Visibility: 4mi
Dew Point: 38°   Wind: 10mph
Humidity: 93%   Direction: 130°SE
Pressure: 29.65"   Gusts: NA
Location:  42.1512°N, 88.1636°W
Report Text: KPWK 230402Z AUTO 13009KT 4SM -RA BR OVC007 04/03 A2965 RMK AO2 RAB0354 P0000 T00440033
Loading
Personal Weather Stations






























Interactive Weather Map New forecast layout! Learn more

10-Day Weather Forecast

Advertisements
Track Severe Weather on mobile